createdAt,value
2017-10-03T07:42:16.519Z,68.58
2017-10-03T07:44:49.992Z,69.19
2017-10-03T07:47:23.736Z,68.06
2017-10-03T07:50:01.905Z,69.66
2017-10-03T07:52:35.826Z,69.50
2017-10-03T07:55:10.319Z,68.27
2017-10-03T07:57:44.554Z,69.95
2017-10-03T08:00:19.164Z,69.13
2017-10-03T08:02:53.700Z,69.06
2017-10-03T08:05:25.610Z,68.56
2017-10-03T08:07:57.458Z,69.21
2017-10-03T08:10:30.605Z,68.76
2017-10-03T08:13:24.216Z,69.49
2017-10-03T08:15:57.249Z,70.23
2017-10-03T08:18:31.175Z,68.84
2017-10-03T08:21:05.000Z,67.67
2017-10-03T08:23:37.364Z,66.52
2017-10-03T08:26:09.919Z,67.19
2017-10-03T08:28:43.299Z,68.48
2017-10-03T08:31:17.043Z,68.22
2017-10-03T08:33:53.408Z,67.74
2017-10-03T08:36:26.913Z,69.95
2017-10-03T08:38:59.088Z,71.65
2017-10-03T08:41:31.472Z,70.00
2017-10-03T08:44:12.132Z,71.52
2017-10-03T08:46:45.719Z,73.85
2017-10-03T08:49:18.733Z,74.32
2017-10-03T08:51:59.256Z,72.21
2017-10-03T08:54:34.265Z,75.08
2017-10-03T08:57:11.459Z,73.52
2017-10-03T08:59:47.224Z,72.41
2017-10-03T09:02:21.921Z,71.79
2017-10-03T09:05:10.047Z,73.33
2017-10-03T09:07:50.131Z,71.84
2017-10-03T09:10:23.530Z,71.22
2017-10-03T09:12:56.183Z,70.17
2017-10-03T09:15:27.782Z,70.68
2017-10-03T09:18:01.868Z,70.67
2017-10-03T09:20:35.061Z,70.76
2017-10-03T09:23:08.375Z,69.56
2017-10-03T09:25:45.913Z,68.73
2017-10-03T09:28:20.206Z,69.17
2017-10-03T09:30:52.721Z,70.22
2017-10-03T09:33:26.526Z,70.93
2017-10-03T09:35:59.997Z,71.60
2017-10-03T09:38:32.211Z,71.99
2017-10-03T09:41:08.995Z,71.47
2017-10-03T09:43:40.259Z,70.21
2017-10-03T09:46:16.117Z,69.86
2017-10-03T09:48:57.607Z,69.90
2017-10-03T09:51:31.754Z,69.93
2017-10-03T09:54:04.869Z,69.42
2017-10-03T09:56:36.974Z,69.97
2017-10-03T09:59:08.380Z,68.79
2017-10-03T10:01:40.414Z,67.23
2017-10-03T10:04:15.861Z,67.82
2017-10-03T10:06:49.711Z,68.68
2017-10-03T10:09:25.320Z,67.74
2017-10-03T10:12:00.064Z,67.87
2017-10-03T10:14:35.167Z,65.89
2017-10-03T10:17:07.776Z,68.23
2017-10-03T10:19:39.590Z,66.94
2017-10-03T10:22:18.644Z,65.33
2017-10-03T10:25:00.482Z,65.87
2017-10-03T10:27:34.067Z,69.47
2017-10-03T10:30:09.362Z,69.85
2017-10-03T10:32:44.020Z,71.81
2017-10-03T10:35:16.956Z,70.84
2017-10-03T10:37:56.879Z,70.33
2017-10-03T10:40:42.652Z,68.43
2017-10-03T10:43:17.086Z,68.38
2017-10-03T10:45:52.716Z,68.29
2017-10-03T10:48:24.973Z,68.96
2017-10-03T10:50:56.745Z,68.28
2017-10-03T10:53:31.704Z,67.98
2017-10-03T10:56:03.776Z,68.35
2017-10-03T10:58:40.747Z,70.18
2017-10-03T11:01:15.352Z,71.72
2017-10-03T11:03:50.642Z,68.81
2017-10-03T11:06:25.234Z,68.79
2017-10-03T11:09:00.042Z,69.35
2017-10-03T11:11:35.249Z,67.84
2017-10-03T11:14:12.192Z,70.01
2017-10-03T11:16:47.936Z,66.26
2017-10-03T11:19:29.185Z,68.65
2017-10-03T11:22:05.716Z,65.97
2017-10-03T11:24:47.643Z,64.87
